createdAt,value
2019-03-23T00:04:04.376Z,17.98
2019-03-23T00:09:11.073Z,14.87
2019-03-23T00:14:17.973Z,39.08
2019-03-23T00:19:24.772Z,25.70
2019-03-23T00:24:31.563Z,26.52
2019-03-23T00:29:38.266Z,23.52
2019-03-23T00:34:45.110Z,11.10
2019-03-23T00:39:51.751Z,9.35
2019-03-23T00:44:58.705Z,11.35
2019-03-23T00:50:05.612Z,7.58
2019-03-23T00:55:12.310Z,8.83
2019-03-23T01:00:19.001Z,9.75
2019-03-23T01:05:25.840Z,10.65
2019-03-23T01:10:32.588Z,16.00
2019-03-23T01:15:39.380Z,13.70
2019-03-23T01:20:49.917Z,14.35
2019-03-23T01:25:54.479Z,25.60
2019-03-23T01:31:01.376Z,28.12
2019-03-23T01:36:08.756Z,25.02
2019-03-23T01:41:15.504Z,28.60
2019-03-23T01:46:22.405Z,22.05
2019-03-23T01:51:29.045Z,29.32
2019-03-23T01:56:35.658Z,38.45
2019-03-23T02:01:42.394Z,57.45
2019-03-23T02:06:49.224Z,31.52
2019-03-23T02:11:55.782Z,20.10
2019-03-23T02:17:02.675Z,18.90
2019-03-23T02:22:09.483Z,34.38
2019-03-23T02:27:16.258Z,29.50
2019-03-23T02:32:22.971Z,25.77
2019-03-23T02:37:29.940Z,25.57
2019-03-23T02:42:36.581Z,21.12
2019-03-23T02:47:43.516Z,26.77
2019-03-23T02:52:50.245Z,22.27
2019-03-23T02:57:56.882Z,23.70
2019-03-23T03:03:03.706Z,19.87
2019-03-23T03:08:10.277Z,17.92
2019-03-23T03:13:16.990Z,14.93
2019-03-23T03:18:23.629Z,18.52
2019-03-23T03:23:30.347Z,18.48
2019-03-23T03:28:37.083Z,17.80
2019-03-23T03:33:43.676Z,17.95
2019-03-23T03:38:50.433Z,20.75
2019-03-23T03:43:57.399Z,16.40
2019-03-23T03:49:12.218Z,18.35
2019-03-23T03:54:12.558Z,14.80
2019-03-23T03:59:19.310Z,13.55
2019-03-23T04:04:26.150Z,14.00
2019-03-23T04:09:32.855Z,16.35
2019-03-23T04:14:39.621Z,19.10
2019-03-23T04:19:46.296Z,15.50
2019-03-23T04:24:52.926Z,17.00
2019-03-23T04:29:59.674Z,15.58
2019-03-23T04:35:07.366Z,14.23
2019-03-23T04:40:14.239Z,13.28
2019-03-23T04:45:20.996Z,16.60
2019-03-23T04:50:27.933Z,15.70
2019-03-23T04:55:34.520Z,13.30
2019-03-23T05:00:41.181Z,15.18
2019-03-23T05:05:47.879Z,12.10
2019-03-23T05:10:54.662Z,13.65
2019-03-23T05:16:01.372Z,12.93
2019-03-23T05:21:08.248Z,12.63
2019-03-23T05:26:15.256Z,12.15
2019-03-23T05:31:21.854Z,12.07
2019-03-23T05:36:28.750Z,12.98
2019-03-23T05:41:35.486Z,14.73
2019-03-23T05:46:42.288Z,12.37
2019-03-23T05:51:49.131Z,13.08
2019-03-23T05:56:56.033Z,11.57
2019-03-23T06:02:02.664Z,13.32
2019-03-23T06:07:09.563Z,12.85
2019-03-23T06:12:17.684Z,13.38
2019-03-23T06:17:24.417Z,15.13
2019-03-23T06:22:31.008Z,17.05
2019-03-23T06:27:37.836Z,17.57
2019-03-23T06:32:44.527Z,13.30
2019-03-23T06:37:51.214Z,15.98
2019-03-23T06:42:59.851Z,18.02
2019-03-23T06:48:06.364Z,14.13
2019-03-23T06:53:12.941Z,22.75
2019-03-23T06:58:19.727Z,17.17
2019-03-23T07:03:26.442Z,24.43
2019-03-23T07:08:33.135Z,27.10
2019-03-23T07:13:39.789Z,28.47
2019-03-23T07:18:46.512Z,23.15
2019-03-23T07:23:53.199Z,22.45
2019-03-23T07:29:00.352Z,19.32
2019-03-23T07:34:07.181Z,22.20
2019-03-23T07:39:13.773Z,16.70
2019-03-23T07:44:20.439Z,15.18
2019-03-23T07:49:28.001Z,13.10
2019-03-23T07:54:35.251Z,13.95
2019-03-23T07:59:42.256Z,11.68
2019-03-23T08:04:48.742Z,12.70
2019-03-23T08:09:55.133Z,8.65
2019-03-23T08:15:02.154Z,9.38
2019-03-23T08:20:09.183Z,9.45
2019-03-23T08:25:18.217Z,9.18
2019-03-23T08:30:24.975Z,11.93
2019-03-23T08:35:31.746Z,9.03
2019-03-23T08:40:38.440Z,9.85
2019-03-23T08:45:45.025Z,8.18
2019-03-23T08:50:51.606Z,7.70
2019-03-23T08:55:58.413Z,9.63
2019-03-23T09:01:05.409Z,9.20
2019-03-23T09:06:12.475Z,9.00
2019-03-23T09:11:20.659Z,9.48
2019-03-23T09:16:27.730Z,10.00
2019-03-23T09:21:34.641Z,9.15
2019-03-23T09:26:41.244Z,7.40
2019-03-23T09:31:48.135Z,7.62
2019-03-23T09:36:55.073Z,9.70
2019-03-23T09:42:02.121Z,8.85
2019-03-23T09:47:08.764Z,7.03
2019-03-23T09:52:15.765Z,9.25
2019-03-23T09:57:22.818Z,10.55
2019-03-23T10:02:29.415Z,8.35
2019-03-23T10:07:36.201Z,5.83
2019-03-23T10:12:43.013Z,8.03
2019-03-23T10:17:50.005Z,4.62
2019-03-23T10:22:56.699Z,7.70
2019-03-23T10:28:03.509Z,8.75
2019-03-23T10:33:10.413Z,5.87
2019-03-23T10:38:17.297Z,7.83
2019-03-23T10:43:23.986Z,5.80
2019-03-23T10:48:30.958Z,4.75
2019-03-23T10:53:37.585Z,5.53
2019-03-23T10:58:44.250Z,4.20
2019-03-23T11:03:51.077Z,4.12
2019-03-23T11:08:57.670Z,4.72
2019-03-23T11:14:04.318Z,4.08
2019-03-23T11:19:13.550Z,5.40
2019-03-23T11:24:19.274Z,6.15
2019-03-23T11:29:25.870Z,5.50
2019-03-23T11:34:32.608Z,4.50
2019-03-23T11:39:39.159Z,4.87
2019-03-23T11:44:45.871Z,4.53
2019-03-23T11:49:52.518Z,4.33
2019-03-23T11:54:59.490Z,5.67
2019-03-23T12:00:07.173Z,4.05
2019-03-23T12:05:14.416Z,6.70
2019-03-23T12:10:21.197Z,4.37
2019-03-23T12:15:29.881Z,4.65
2019-03-23T12:20:36.596Z,3.90
2019-03-23T12:25:43.232Z,3.58
2019-03-23T12:30:49.843Z,8.43
2019-03-23T12:35:56.650Z,7.03
2019-03-23T12:41:14.158Z,4.50
2019-03-23T12:46:12.017Z,2.85
2019-03-23T12:51:18.750Z,4.33
2019-03-23T12:56:25.339Z,4.00
2019-03-23T13:01:32.104Z,5.05
2019-03-23T13:06:38.795Z,11.05
2019-03-23T13:11:45.485Z,4.25
2019-03-23T13:16:52.068Z,6.37
2019-03-23T13:21:58.867Z,8.95
2019-03-23T13:27:05.670Z,5.45
2019-03-23T13:32:12.941Z,4.17
2019-03-23T13:37:20.184Z,9.63
2019-03-23T13:42:27.081Z,5.12
2019-03-23T13:47:33.813Z,4.35
2019-03-23T13:52:40.508Z,4.85
2019-03-23T13:57:47.204Z,4.37
2019-03-23T14:02:53.793Z,6.10
2019-03-23T14:08:00.382Z,8.05
2019-03-23T14:13:06.871Z,7.72
2019-03-23T14:18:13.463Z,7.33
2019-03-23T14:23:20.163Z,6.72
2019-03-23T14:28:26.850Z,8.05
2019-03-23T14:33:33.618Z,7.62
2019-03-23T14:38:40.291Z,8.65
2019-03-23T14:43:46.988Z,7.10
2019-03-23T14:48:53.420Z,7.62
2019-03-23T14:54:00.174Z,8.18
2019-03-23T14:59:06.984Z,7.58
2019-03-23T15:04:14.251Z,9.55
2019-03-23T15:09:21.227Z,10.53
2019-03-23T15:14:27.916Z,7.03
2019-03-23T15:19:34.704Z,9.08
2019-03-23T15:24:42.120Z,7.47
2019-03-23T15:29:48.721Z,11.35
2019-03-23T15:34:55.404Z,9.78
2019-03-23T15:40:02.375Z,6.80
2019-03-23T15:45:10.123Z,8.43
2019-03-23T15:50:17.133Z,10.30
2019-03-23T15:55:23.854Z,9.25
2019-03-23T16:00:30.786Z,8.08
2019-03-23T16:05:37.588Z,8.05
2019-03-23T16:10:44.075Z,7.22
2019-03-23T16:15:50.901Z,9.00
2019-03-23T16:20:57.594Z,8.68
2019-03-23T16:26:04.303Z,9.20
2019-03-23T16:31:11.135Z,7.60
2019-03-23T16:36:17.707Z,8.48
2019-03-23T16:41:24.851Z,11.00
2019-03-23T16:46:31.585Z,8.60
2019-03-23T16:51:38.391Z,8.63
2019-03-23T16:56:45.112Z,7.75
2019-03-23T17:01:51.765Z,6.75
2019-03-23T17:07:04.543Z,7.37
2019-03-23T17:12:11.391Z,7.28
2019-03-23T17:17:18.294Z,10.48
2019-03-23T17:22:25.038Z,8.78
2019-03-23T17:27:31.676Z,10.08
2019-03-23T17:32:38.691Z,8.23
2019-03-23T17:37:45.426Z,10.18
2019-03-23T17:42:52.024Z,8.15
2019-03-23T17:47:58.728Z,6.60
2019-03-23T17:53:05.350Z,6.33
2019-03-23T17:58:12.181Z,10.45
2019-03-23T18:03:18.790Z,8.75
2019-03-23T18:08:25.512Z,9.75
2019-03-23T18:13:32.233Z,6.33
2019-03-23T18:18:39.229Z,7.12
2019-03-23T18:23:46.260Z,9.28
2019-03-23T18:28:52.777Z,6.80
2019-03-23T18:33:59.876Z,6.12
2019-03-23T18:39:07.473Z,13.15
2019-03-23T18:44:16.457Z,12.35
2019-03-23T18:49:22.566Z,12.73
2019-03-23T18:54:29.155Z,9.65
2019-03-23T18:59:35.919Z,9.38
2019-03-23T19:04:42.667Z,9.55
2019-03-23T19:09:49.069Z,13.45
2019-03-23T19:14:55.930Z,22.67
2019-03-23T19:20:02.661Z,35.20
2019-03-23T19:25:17.067Z,19.52
2019-03-23T19:30:18.444Z,11.20
2019-03-23T19:35:25.236Z,11.30
2019-03-23T19:40:31.827Z,13.03
2019-03-23T19:45:38.668Z,16.80
2019-03-23T19:50:45.418Z,20.45
2019-03-23T19:55:53.640Z,31.20
2019-03-23T20:01:00.272Z,19.95
2019-03-23T20:06:07.096Z,24.32
2019-03-23T20:11:14.039Z,67.32
2019-03-23T20:16:20.762Z,60.40
2019-03-23T20:21:27.455Z,77.65
2019-03-23T20:26:33.967Z,16.02
2019-03-23T20:31:40.707Z,21.48
2019-03-23T20:36:47.542Z,24.12
2019-03-23T20:41:54.848Z,14.63
2019-03-23T20:47:01.850Z,11.10
2019-03-23T20:52:08.258Z,9.20
2019-03-23T20:57:23.493Z,7.80
2019-03-23T21:02:23.566Z,9.73
2019-03-23T21:07:30.334Z,17.42
2019-03-23T21:12:37.223Z,21.25
2019-03-23T21:17:51.142Z,16.93
2019-03-23T21:22:52.654Z,9.65
2019-03-23T21:27:59.667Z,9.38
2019-03-23T21:33:06.558Z,8.28
2019-03-23T21:38:13.287Z,7.45
2019-03-23T21:43:20.113Z,9.50
2019-03-23T21:48:26.779Z,7.87
2019-03-23T21:53:33.469Z,11.85
2019-03-23T21:58:39.961Z,9.15
2019-03-23T22:03:46.857Z,18.75
2019-03-23T22:08:53.742Z,11.90
2019-03-23T22:14:00.334Z,26.23
2019-03-23T22:19:07.246Z,16.80
2019-03-23T22:24:13.843Z,11.83
2019-03-23T22:29:20.588Z,13.15
2019-03-23T22:34:27.223Z,9.28
2019-03-23T22:39:33.918Z,13.43
2019-03-23T22:44:40.719Z,10.65
2019-03-23T22:49:47.615Z,10.25
2019-03-23T22:54:54.426Z,20.30
2019-03-23T23:00:01.173Z,28.55
2019-03-23T23:05:08.595Z,33.95
2019-03-23T23:10:15.414Z,26.00
2019-03-23T23:15:22.009Z,22.48
2019-03-23T23:20:28.727Z,41.85
2019-03-23T23:25:35.531Z,34.60
2019-03-23T23:30:42.253Z,34.20
2019-03-23T23:35:49.399Z,31.57
2019-03-23T23:40:56.454Z,23.02
2019-03-23T23:46:02.986Z,24.00
2019-03-23T23:51:09.541Z,22.07
2019-03-23T23:56:16.170Z,23.02
